createdAt,value
2019-03-26T00:02:03.314Z,7.40
2019-03-26T00:04:33.660Z,7.50
2019-03-26T00:07:04.012Z,7.50
2019-03-26T00:09:34.303Z,7.40
2019-03-26T00:12:24.022Z,7.40
2019-03-26T00:17:37.857Z,7.40
2019-03-26T00:20:08.166Z,7.40
2019-03-26T00:22:57.873Z,7.40
2019-03-26T00:25:28.187Z,7.30
2019-03-26T00:27:58.735Z,7.30
2019-03-26T00:30:29.089Z,7.30
2019-03-26T00:33:00.178Z,7.20
2019-03-26T00:35:35.631Z,7.20
2019-03-26T00:38:06.193Z,7.20
2019-03-26T00:40:36.510Z,7.20
2019-03-26T00:43:06.853Z,7.10
2019-03-26T00:45:37.942Z,7.20
2019-03-26T00:48:14.442Z,7.10
2019-03-26T00:50:44.763Z,7.10
2019-03-26T00:53:15.072Z,7.00
2019-03-26T00:55:45.429Z,7.00
2019-03-26T00:58:16.517Z,7.10
2019-03-26T01:00:46.832Z,7.10
2019-03-26T01:03:17.185Z,7.00
2019-03-26T01:06:09.258Z,7.10
2019-03-26T01:08:40.612Z,7.00
2019-03-26T01:11:11.713Z,7.10
2019-03-26T01:13:42.028Z,7.00
2019-03-26T01:16:15.571Z,7.00
2019-03-26T01:18:46.667Z,7.00
2019-03-26T01:21:19.036Z,7.00
2019-03-26T01:23:49.376Z,7.00
2019-03-26T01:26:23.784Z,7.00
2019-03-26T01:29:01.443Z,6.90
2019-03-26T01:31:32.525Z,6.90
2019-03-26T01:34:04.913Z,6.90
2019-03-26T01:36:57.427Z,6.90
2019-03-26T01:39:27.739Z,6.80
2019-03-26T01:41:58.054Z,6.80
2019-03-26T01:44:30.187Z,6.80
2019-03-26T01:47:00.495Z,6.80
2019-03-26T01:49:34.940Z,6.80
2019-03-26T01:52:05.260Z,6.80
2019-03-26T01:54:35.581Z,6.80
2019-03-26T01:57:05.925Z,6.70
2019-03-26T01:59:36.241Z,6.80
2019-03-26T02:02:06.557Z,6.70
2019-03-26T02:04:36.962Z,6.70
2019-03-26T02:07:13.414Z,6.80
2019-03-26T02:09:43.771Z,6.70
2019-03-26T02:12:14.083Z,6.70
2019-03-26T02:15:04.566Z,6.50
2019-03-26T02:17:34.887Z,6.50
2019-03-26T02:20:05.200Z,6.60
2019-03-26T02:22:35.540Z,6.70
2019-03-26T02:25:05.860Z,6.60
2019-03-26T02:27:36.212Z,6.60
2019-03-26T02:30:07.581Z,6.60
2019-03-26T02:32:37.894Z,6.60
2019-03-26T02:35:17.796Z,6.60
2019-03-26T02:37:45.700Z,6.60
2019-03-26T02:40:37.230Z,6.60
2019-03-26T02:43:09.626Z,6.60
2019-03-26T02:45:39.957Z,6.60
2019-03-26T02:48:10.277Z,6.50
2019-03-26T02:50:40.619Z,6.50
2019-03-26T02:53:11.714Z,6.50
2019-03-26T02:56:01.446Z,6.40
2019-03-26T02:58:31.756Z,6.50
2019-03-26T03:01:02.069Z,6.50
2019-03-26T03:03:32.500Z,6.50
2019-03-26T03:06:03.516Z,6.50
2019-03-26T03:08:52.195Z,6.50
2019-03-26T03:11:22.520Z,6.50
2019-03-26T03:13:54.879Z,6.50
2019-03-26T03:16:25.220Z,6.50
2019-03-26T03:18:55.535Z,6.50
2019-03-26T03:21:25.861Z,6.50
2019-03-26T03:23:56.200Z,6.50
2019-03-26T03:26:26.524Z,6.50
2019-03-26T03:28:56.849Z,6.40
2019-03-26T03:31:27.189Z,6.50
2019-03-26T03:33:58.279Z,6.40
2019-03-26T03:36:32.710Z,6.40
2019-03-26T03:39:10.118Z,6.50
2019-03-26T03:41:40.439Z,6.50
2019-03-26T03:44:10.752Z,6.60
2019-03-26T03:46:42.127Z,6.50
2019-03-26T03:49:12.445Z,6.50
2019-03-26T03:51:42.993Z,6.40
2019-03-26T03:54:13.277Z,6.40
2019-03-26T03:56:47.691Z,6.50
2019-03-26T03:59:20.083Z,6.40
2019-03-26T04:01:50.523Z,6.40
2019-03-26T04:04:22.884Z,6.40
2019-03-26T04:06:54.255Z,6.40
2019-03-26T04:09:25.595Z,6.40
2019-03-26T04:11:55.910Z,6.50
2019-03-26T04:14:26.258Z,6.50
2019-03-26T04:16:56.856Z,6.50
2019-03-26T04:19:27.179Z,6.50
2019-03-26T04:21:59.579Z,6.50
2019-03-26T04:24:29.905Z,6.60
2019-03-26T04:27:00.239Z,6.50
2019-03-26T04:32:13.002Z,6.60
2019-03-26T04:34:43.355Z,6.60
2019-03-26T04:37:18.781Z,6.60
2019-03-26T04:39:49.123Z,6.60
2019-03-26T04:42:19.442Z,6.50
2019-03-26T04:44:49.756Z,6.70
2019-03-26T04:47:20.379Z,6.70
2019-03-26T04:49:50.694Z,6.70
2019-03-26T04:52:22.793Z,6.70
2019-03-26T04:54:53.137Z,6.70
2019-03-26T04:57:43.919Z,6.70
2019-03-26T05:00:15.405Z,6.70
2019-03-26T05:02:45.724Z,6.80
2019-03-26T05:05:16.043Z,6.70
2019-03-26T05:08:07.809Z,6.70
2019-03-26T05:10:38.122Z,6.60
2019-03-26T05:13:08.452Z,6.60
2019-03-26T05:15:38.791Z,6.70
2019-03-26T05:18:09.887Z,6.60
2019-03-26T05:20:40.196Z,6.60
2019-03-26T05:23:13.617Z,6.60
2019-03-26T05:25:43.937Z,6.60
2019-03-26T05:28:14.274Z,6.60
2019-03-26T05:30:51.792Z,6.60
2019-03-26T05:33:22.140Z,6.60
2019-03-26T05:35:53.226Z,6.70
2019-03-26T05:38:23.573Z,6.70
2019-03-26T05:40:53.908Z,6.70
2019-03-26T05:43:24.242Z,6.70
2019-03-26T05:45:55.359Z,6.60
2019-03-26T05:48:25.673Z,6.60
2019-03-26T05:51:04.205Z,6.50
2019-03-26T05:53:34.516Z,6.60
2019-03-26T05:56:04.842Z,6.60
2019-03-26T05:58:54.558Z,6.60
2019-03-26T06:01:25.726Z,6.60
2019-03-26T06:04:18.179Z,6.60
2019-03-26T06:06:48.484Z,6.60
2019-03-26T06:09:19.566Z,6.50
2019-03-26T06:12:09.064Z,6.50
2019-03-26T06:14:39.380Z,6.50
2019-03-26T06:17:09.967Z,6.40
2019-03-26T06:19:40.306Z,6.30
2019-03-26T06:22:11.664Z,6.50
2019-03-26T06:24:41.985Z,6.50
2019-03-26T06:27:12.333Z,6.60
2019-03-26T06:30:05.161Z,6.60
2019-03-26T06:32:35.445Z,6.60
2019-03-26T06:35:06.527Z,6.60
2019-03-26T06:37:36.851Z,6.60
2019-03-26T06:40:07.208Z,6.50
2019-03-26T06:42:37.524Z,6.60
2019-03-26T06:45:16.112Z,6.70
2019-03-26T06:47:46.435Z,6.90
2019-03-26T06:50:16.754Z,6.70
2019-03-26T06:53:24.762Z,6.70
2019-03-26T06:55:55.076Z,6.80
2019-03-26T06:58:25.391Z,6.70
2019-03-26T07:00:55.726Z,6.70
2019-03-26T07:03:26.420Z,6.70
2019-03-26T07:05:56.678Z,6.70
2019-03-26T07:08:27.022Z,6.70
2019-03-26T07:10:57.419Z,6.80
2019-03-26T07:13:28.034Z,6.80
2019-03-26T07:15:58.377Z,6.80
2019-03-26T07:18:28.754Z,6.90
2019-03-26T07:21:01.178Z,6.90
2019-03-26T07:23:31.691Z,7.00
2019-03-26T07:26:02.005Z,7.00
2019-03-26T07:28:32.321Z,7.00
2019-03-26T07:31:02.851Z,7.00
2019-03-26T07:33:33.171Z,7.00
2019-03-26T07:36:08.622Z,6.90
2019-03-26T07:38:40.991Z,7.00
2019-03-26T07:41:17.915Z,7.20
2019-03-26T07:43:48.373Z,7.10
2019-03-26T07:46:18.694Z,7.00
2019-03-26T07:48:50.056Z,7.10
2019-03-26T07:51:20.376Z,7.20
2019-03-26T07:53:50.718Z,7.30
2019-03-26T07:56:25.162Z,7.40
2019-03-26T07:58:55.482Z,7.40
2019-03-26T08:01:30.942Z,7.50
2019-03-26T08:04:01.254Z,7.60
2019-03-26T08:06:50.960Z,7.60
2019-03-26T08:09:21.343Z,7.70
2019-03-26T08:11:51.605Z,7.80
2019-03-26T08:14:21.957Z,7.70
2019-03-26T08:16:53.068Z,7.50
2019-03-26T08:19:42.509Z,7.60
2019-03-26T08:22:14.871Z,7.60
2019-03-26T08:24:45.204Z,7.60
2019-03-26T08:27:15.560Z,7.60
2019-03-26T08:29:45.885Z,7.60
2019-03-26T08:32:16.256Z,7.60
2019-03-26T08:34:46.927Z,7.50
2019-03-26T08:40:01.415Z,7.40
2019-03-26T08:42:31.747Z,7.40
2019-03-26T08:45:02.062Z,7.40
2019-03-26T08:47:32.413Z,7.50
2019-03-26T08:50:02.732Z,7.80
2019-03-26T08:52:33.061Z,8.00
2019-03-26T08:55:04.417Z,8.10
2019-03-26T08:57:33.736Z,8.10
2019-03-26T09:00:04.062Z,8.10
2019-03-26T09:02:35.166Z,8.30
2019-03-26T09:05:05.482Z,8.20
2019-03-26T09:07:35.831Z,8.20
2019-03-26T09:10:11.115Z,8.30
2019-03-26T09:12:41.449Z,8.40
2019-03-26T09:15:14.893Z,8.40
2019-03-26T09:17:49.349Z,8.50
2019-03-26T09:20:19.664Z,8.50
2019-03-26T09:22:50.749Z,8.60
2019-03-26T09:25:40.461Z,8.60
2019-03-26T09:28:10.851Z,8.70
2019-03-26T09:30:45.316Z,8.80
2019-03-26T09:33:15.664Z,8.70
2019-03-26T09:35:46.087Z,8.80
2019-03-26T09:38:17.172Z,8.80
2019-03-26T09:40:47.508Z,8.80
2019-03-26T09:43:17.837Z,8.80
2019-03-26T09:45:48.154Z,8.80
2019-03-26T09:48:19.521Z,8.90
2019-03-26T09:50:49.846Z,8.90
2019-03-26T09:53:20.162Z,9.00
2019-03-26T09:55:50.515Z,9.00
2019-03-26T09:58:20.835Z,9.00
2019-03-26T10:00:51.320Z,9.00
2019-03-26T10:03:22.218Z,9.10
2019-03-26T10:05:53.420Z,9.10
2019-03-26T10:08:24.444Z,9.30
2019-03-26T10:10:55.113Z,9.20
2019-03-26T10:13:26.456Z,9.20
2019-03-26T10:15:56.771Z,9.20
2019-03-26T10:18:27.123Z,9.30
2019-03-26T10:20:57.437Z,9.10
2019-03-26T10:23:27.755Z,9.20
2019-03-26T10:25:59.696Z,9.20
2019-03-26T10:28:30.116Z,9.20
2019-03-26T10:31:02.473Z,9.40
2019-03-26T10:33:32.870Z,9.20
2019-03-26T10:36:03.188Z,9.30
2019-03-26T10:38:33.515Z,9.40
2019-03-26T10:41:03.865Z,9.50
2019-03-26T10:43:34.192Z,9.50
2019-03-26T10:46:04.512Z,9.50
2019-03-26T10:48:34.853Z,9.50
2019-03-26T10:51:05.202Z,9.60
2019-03-26T10:53:35.527Z,9.70
2019-03-26T10:56:10.030Z,9.80
2019-03-26T10:58:40.358Z,9.80
2019-03-26T11:01:10.678Z,9.70
2019-03-26T11:03:41.388Z,9.70
2019-03-26T11:06:11.705Z,9.60
2019-03-26T11:08:45.039Z,9.70
2019-03-26T11:11:12.469Z,9.80
2019-03-26T11:13:43.551Z,9.90
2019-03-26T11:16:15.924Z,9.90
2019-03-26T11:19:05.648Z,9.90
2019-03-26T11:21:36.011Z,9.80
2019-03-26T11:24:06.336Z,9.80
2019-03-26T11:26:36.684Z,9.80
2019-03-26T11:29:26.659Z,9.90
2019-03-26T11:31:59.050Z,9.90
2019-03-26T11:34:29.406Z,10.00
2019-03-26T11:37:00.751Z,10.20
2019-03-26T11:39:32.909Z,10.20
2019-03-26T11:42:01.435Z,10.20
2019-03-26T11:44:32.532Z,10.20
2019-03-26T11:47:02.910Z,10.10
2019-03-26T11:49:33.231Z,10.20
2019-03-26T11:52:03.565Z,10.20
2019-03-26T11:54:33.922Z,10.10
2019-03-26T11:57:05.292Z,10.10
2019-03-26T11:59:35.625Z,10.00
2019-03-26T12:02:06.007Z,10.20
2019-03-26T12:04:37.346Z,10.20
2019-03-26T12:07:07.672Z,10.30
2019-03-26T12:09:46.295Z,10.30
2019-03-26T12:12:08.564Z,10.50
2019-03-26T12:14:38.880Z,10.50
2019-03-26T12:17:09.291Z,10.60
2019-03-26T12:19:39.616Z,10.50
2019-03-26T12:22:15.079Z,10.60
2019-03-26T12:24:45.475Z,10.50
2019-03-26T12:27:15.806Z,10.60
2019-03-26T12:29:47.053Z,10.60
2019-03-26T12:32:17.385Z,10.80
2019-03-26T12:34:48.104Z,10.70
2019-03-26T12:37:18.451Z,10.80
2019-03-26T12:39:58.804Z,10.80
2019-03-26T12:42:26.281Z,10.80
2019-03-26T12:45:18.168Z,10.70
2019-03-26T12:47:47.358Z,10.70
2019-03-26T12:53:02.157Z,10.70
2019-03-26T12:55:32.495Z,10.60
2019-03-26T12:58:02.817Z,10.60
2019-03-26T13:00:33.221Z,10.70
2019-03-26T13:03:03.546Z,10.80
2019-03-26T13:05:33.865Z,10.80
2019-03-26T13:08:04.214Z,10.80
2019-03-26T13:10:34.579Z,10.80
2019-03-26T13:13:04.902Z,10.70
2019-03-26T13:15:35.253Z,10.80
2019-03-26T13:18:05.572Z,10.80
2019-03-26T13:20:37.934Z,10.90
2019-03-26T13:23:08.276Z,10.90
2019-03-26T13:25:38.595Z,10.90
2019-03-26T13:28:08.919Z,10.90
2019-03-26T13:30:39.311Z,10.90
2019-03-26T13:33:16.948Z,10.90
2019-03-26T13:35:47.294Z,10.90
2019-03-26T13:38:17.616Z,10.80
2019-03-26T13:40:47.970Z,10.80
2019-03-26T13:43:18.321Z,10.80
2019-03-26T13:45:49.664Z,10.90
2019-03-26T13:48:21.072Z,10.90
2019-03-26T13:50:58.756Z,11.00
2019-03-26T13:53:29.078Z,11.00
2019-03-26T13:56:00.384Z,10.90
2019-03-26T13:58:30.662Z,10.90
2019-03-26T14:01:01.858Z,10.90
2019-03-26T14:03:32.177Z,10.90
2019-03-26T14:06:02.527Z,11.00
2019-03-26T14:08:32.844Z,11.10
2019-03-26T14:11:04.521Z,11.10
2019-03-26T14:13:36.350Z,11.10
2019-03-26T14:16:06.690Z,11.10
2019-03-26T14:18:37.004Z,11.10
2019-03-26T14:21:07.401Z,11.00
2019-03-26T14:23:37.724Z,11.10
2019-03-26T14:26:08.070Z,11.00
2019-03-26T14:28:38.431Z,11.10
2019-03-26T14:31:09.051Z,11.10
2019-03-26T14:33:39.366Z,11.10
2019-03-26T14:36:09.709Z,11.10
2019-03-26T14:38:40.032Z,11.10
2019-03-26T14:41:10.359Z,11.20
2019-03-26T14:43:40.710Z,11.10
2019-03-26T14:46:11.112Z,11.00
2019-03-26T14:48:41.430Z,11.00
2019-03-26T14:51:12.762Z,11.00
2019-03-26T14:53:43.722Z,11.00
2019-03-26T14:56:14.228Z,11.20
2019-03-26T14:58:44.584Z,10.90
2019-03-26T15:01:14.895Z,11.00
2019-03-26T15:03:45.230Z,11.10
2019-03-26T15:06:15.568Z,11.00
2019-03-26T15:08:45.895Z,11.00
2019-03-26T15:11:16.984Z,11.10
2019-03-26T15:13:51.501Z,11.10
2019-03-26T15:16:21.827Z,11.10
2019-03-26T15:18:52.165Z,11.10
2019-03-26T15:21:22.512Z,11.10
2019-03-26T15:23:53.894Z,11.10
2019-03-26T15:26:24.983Z,11.00
2019-03-26T15:29:14.704Z,11.00
2019-03-26T15:31:45.370Z,11.00
2019-03-26T15:34:15.783Z,11.00
2019-03-26T15:36:47.947Z,10.90
2019-03-26T15:39:19.043Z,10.90
2019-03-26T15:41:49.371Z,10.90
2019-03-26T15:44:19.800Z,11.10
2019-03-26T15:46:50.049Z,11.00
2019-03-26T15:49:20.367Z,10.90
2019-03-26T15:51:50.737Z,10.80
2019-03-26T15:54:21.070Z,10.90
2019-03-26T15:56:52.415Z,10.80
2019-03-26T15:59:22.762Z,10.80
2019-03-26T16:02:12.463Z,10.80
2019-03-26T16:04:42.811Z,10.80
2019-03-26T16:07:13.900Z,10.70
2019-03-26T16:09:45.255Z,10.70
2019-03-26T16:12:17.647Z,11.00
2019-03-26T16:14:48.058Z,11.20
2019-03-26T16:17:18.381Z,11.20
2019-03-26T16:19:48.673Z,11.10
2019-03-26T16:22:19.080Z,11.10
2019-03-26T16:24:49.345Z,11.10
2019-03-26T16:27:19.750Z,11.10
2019-03-26T16:29:50.071Z,11.10
2019-03-26T16:32:20.402Z,11.10
2019-03-26T16:34:50.754Z,11.00
2019-03-26T16:37:22.129Z,11.00
2019-03-26T16:39:52.457Z,11.10
2019-03-26T16:42:22.823Z,11.10
2019-03-26T16:44:53.155Z,11.10
2019-03-26T16:47:23.523Z,11.10
2019-03-26T16:49:53.891Z,11.00
2019-03-26T16:52:26.613Z,11.00
2019-03-26T16:54:57.361Z,11.00
2019-03-26T16:57:46.047Z,10.80
2019-03-26T17:03:01.087Z,10.90
2019-03-26T17:05:31.408Z,11.00
2019-03-26T17:08:01.735Z,11.00
2019-03-26T17:10:32.091Z,11.00
2019-03-26T17:13:02.423Z,10.90
2019-03-26T17:15:32.779Z,10.90
2019-03-26T17:18:03.897Z,10.70
2019-03-26T17:20:34.217Z,10.70
2019-03-26T17:23:04.571Z,10.50
2019-03-26T17:25:36.730Z,10.40
2019-03-26T17:28:07.041Z,10.30
2019-03-26T17:30:37.361Z,10.30
2019-03-26T17:33:07.715Z,10.30
2019-03-26T17:35:38.802Z,10.20
2019-03-26T17:38:15.289Z,10.20
2019-03-26T17:40:45.604Z,10.20
2019-03-26T17:43:15.966Z,10.10
2019-03-26T17:45:46.313Z,10.20
2019-03-26T17:48:17.405Z,10.10
2019-03-26T17:51:08.142Z,10.10
2019-03-26T17:53:38.464Z,10.10
2019-03-26T17:56:08.787Z,10.10
2019-03-26T17:58:39.131Z,10.10
2019-03-26T18:01:10.219Z,10.00
2019-03-26T18:03:46.701Z,10.00
2019-03-26T18:06:17.024Z,10.00
2019-03-26T18:08:47.336Z,9.90
2019-03-26T18:11:39.869Z,9.90
2019-03-26T18:14:10.188Z,9.80
2019-03-26T18:16:40.505Z,9.80
2019-03-26T18:19:11.222Z,9.80
2019-03-26T18:21:51.277Z,9.80
2019-03-26T18:24:14.664Z,9.70
2019-03-26T18:26:44.989Z,9.70
2019-03-26T18:29:15.303Z,9.70
2019-03-26T18:31:45.621Z,9.60
2019-03-26T18:34:16.057Z,9.60
2019-03-26T18:36:46.372Z,9.60
2019-03-26T18:39:16.693Z,9.60
2019-03-26T18:41:47.812Z,9.50
2019-03-26T18:44:18.130Z,9.50
2019-03-26T18:46:48.450Z,9.60
2019-03-26T18:49:18.799Z,9.50
2019-03-26T18:51:49.129Z,9.40
2019-03-26T18:54:20.211Z,9.40
2019-03-26T18:56:50.555Z,9.40
2019-03-26T18:59:40.249Z,9.40
2019-03-26T19:02:10.599Z,9.40
2019-03-26T19:04:41.686Z,9.40
2019-03-26T19:07:11.999Z,9.40
2019-03-26T19:09:42.342Z,9.40
2019-03-26T19:12:16.753Z,9.30
2019-03-26T19:14:47.339Z,9.30
2019-03-26T19:17:17.402Z,9.30
2019-03-26T19:19:47.730Z,9.20
2019-03-26T19:22:18.050Z,9.30
2019-03-26T19:24:48.392Z,9.20
2019-03-26T19:27:20.754Z,9.10
2019-03-26T19:29:51.076Z,9.20
2019-03-26T19:32:21.415Z,9.10
2019-03-26T19:35:10.832Z,9.10
2019-03-26T19:37:41.188Z,9.10
2019-03-26T19:40:11.500Z,9.10
2019-03-26T19:42:41.831Z,9.20
2019-03-26T19:45:12.188Z,9.10
2019-03-26T19:47:42.506Z,9.10
2019-03-26T19:50:14.870Z,9.10
2019-03-26T19:52:45.214Z,9.00
2019-03-26T19:55:34.914Z,9.20
2019-03-26T19:58:05.253Z,9.10
2019-03-26T20:00:35.850Z,9.10
2019-03-26T20:03:06.174Z,9.10
2019-03-26T20:05:36.526Z,9.00
2019-03-26T20:08:06.849Z,8.90
2019-03-26T20:10:37.161Z,9.00
2019-03-26T20:13:23.681Z,9.10
2019-03-26T20:15:41.935Z,9.00
2019-03-26T20:18:12.253Z,9.00
2019-03-26T20:20:42.605Z,8.90
2019-03-26T20:23:12.938Z,9.00
2019-03-26T20:25:43.253Z,8.80
2019-03-26T20:28:14.367Z,8.80
2019-03-26T20:30:44.683Z,8.80
2019-03-26T20:33:15.010Z,8.80
2019-03-26T20:35:45.349Z,8.80
2019-03-26T20:38:15.666Z,8.80
2019-03-26T20:40:45.979Z,8.80
2019-03-26T20:43:17.355Z,8.80
2019-03-26T20:45:47.678Z,8.70
2019-03-26T20:48:18.012Z,8.60
2019-03-26T20:50:48.365Z,8.60
2019-03-26T20:53:21.491Z,8.70
2019-03-26T20:55:54.886Z,8.60
2019-03-26T20:58:25.234Z,8.50
2019-03-26T21:00:55.623Z,8.50
2019-03-26T21:03:25.876Z,8.40
2019-03-26T21:05:56.654Z,8.50
2019-03-26T21:11:08.693Z,8.40
2019-03-26T21:13:50.189Z,8.40
2019-03-26T21:16:10.345Z,8.40
2019-03-26T21:18:40.761Z,8.40
2019-03-26T21:21:11.302Z,8.30
2019-03-26T21:23:42.383Z,8.40
2019-03-26T21:26:19.048Z,8.30
2019-03-26T21:28:53.462Z,8.30
2019-03-26T21:31:23.817Z,8.30
2019-03-26T21:33:54.142Z,8.20
2019-03-26T21:36:43.848Z,8.20
2019-03-26T21:39:14.172Z,8.20
2019-03-26T21:41:45.544Z,8.20
2019-03-26T21:44:15.867Z,8.20
2019-03-26T21:46:46.950Z,8.10
2019-03-26T21:49:17.276Z,8.10
2019-03-26T21:51:49.670Z,8.10
2019-03-26T21:54:22.031Z,8.00
2019-03-26T21:56:52.373Z,8.10
2019-03-26T21:59:22.717Z,8.10
2019-03-26T22:01:53.051Z,8.10
2019-03-26T22:04:23.372Z,8.10
2019-03-26T22:06:53.953Z,8.10
2019-03-26T22:09:31.444Z,8.00
2019-03-26T22:12:01.788Z,8.10
2019-03-26T22:14:32.113Z,7.90
2019-03-26T22:17:02.445Z,8.00
2019-03-26T22:19:32.789Z,7.90
2019-03-26T22:22:03.113Z,8.00
2019-03-26T22:24:33.429Z,7.90
2019-03-26T22:27:03.783Z,7.90
2019-03-26T22:29:34.865Z,8.00
2019-03-26T22:32:07.237Z,8.00
2019-03-26T22:34:40.644Z,8.10
2019-03-26T22:37:29.292Z,8.00
2019-03-26T22:40:03.740Z,7.90
2019-03-26T22:42:34.063Z,7.90
2019-03-26T22:45:04.375Z,7.90
2019-03-26T22:47:34.712Z,7.90
2019-03-26T22:50:05.031Z,7.90
2019-03-26T22:52:35.349Z,7.90
2019-03-26T22:55:06.719Z,7.80
2019-03-26T22:57:37.039Z,7.80
2019-03-26T23:00:10.376Z,7.80
2019-03-26T23:02:41.491Z,7.60
2019-03-26T23:05:11.826Z,7.60
2019-03-26T23:07:43.163Z,7.70
2019-03-26T23:10:13.518Z,7.70
2019-03-26T23:12:44.598Z,7.50
2019-03-26T23:15:23.070Z,7.50
2019-03-26T23:17:53.389Z,7.40
2019-03-26T23:20:23.709Z,7.50
2019-03-26T23:22:54.815Z,7.40
2019-03-26T23:25:26.159Z,7.40
2019-03-26T23:28:00.595Z,7.60
2019-03-26T23:30:30.910Z,7.60
2019-03-26T23:33:09.539Z,7.50
2019-03-26T23:35:39.861Z,7.40
2019-03-26T23:38:10.435Z,7.40
2019-03-26T23:40:41.552Z,7.40
2019-03-26T23:43:11.933Z,7.30
2019-03-26T23:45:42.250Z,7.40
2019-03-26T23:48:14.637Z,7.40
2019-03-26T23:50:44.954Z,7.40
2019-03-26T23:53:15.285Z,7.30
2019-03-26T23:55:45.624Z,7.20
2019-03-26T23:58:36.084Z,7.40
